Aérodrome :
LOGIN :

S'inscrire | Disclaimer

   EN    FR    IT 

 










Légende :    VFR   VFR Marginal   IFR   IFR Intensif   IFR Très Intensif
Visi : 
Plafond : 
>= 8 km
>= 3000ft
5 à 8 km
1000 à 3000 ft
1500m à 5 km
500 à 1000 ft
800 à 1500m
200 à 500 ft
< 800m
< 200 ft
Symboles :   Orages  Brouillard  Fortes neiges  Fortes précipitations  Vent > 20 kt
SIGMETs :   Divers  Orages  Givrage  Turbulence  Onde Orograph.  Cendres Volcan.






- Altitude de l'aérodrome : 6 ft
- Code IATA : PSA


LIRP - Galileo Galilei Pisa

DERNIER METAR :
  • 171145Z 21007KT 9999 SCT025 16/11 Q1027 NOSIG

METARs EXPIRÉS :
  • 171115Z VRB01KT 9999 SCT025 15/10 Q1027 NOSIG
  • 171045Z VRB02KT 9999 SCT025 15/11 Q1027 NOSIG
  • 171015Z VRB01KT 9999 SCT030 14/10 Q1028 NOSIG
  • 170945Z 12005KT 9999 FEW025 13/10 Q1028 NOSIG
  • 170915Z 12005KT 9999 FEW025 12/10 Q1028 NOSIG

TAF TAF LIRP
Valide du 17 à 12h jusqu'au 18 à 12h UTC


171100Z 1712/1812 VRB04KT 9999 SCT025 BKN040
TEMPO 1712/1718 20010KT
TEMPO 1718/1806 5000 RA BR



MET'MAP, la Météo Aéronautique d'un coup d'oeil ! - Copyright ORBIFLY Décembre 2007 - Disclaimer

ORBIFLY MET'MAP TEAM :

Programmation & Développement : Alexandra Zaïnal
Sur une idée originale de : Baudouin d'Aumeries
Assistance à la programmation : Marc-Olivier Méhu
Soutien technique & logistique : Manuel Goepfert

Contact : metmap@orbifly.com




SOURCES & CREDITS :

   NOAA